createdAt,value
2018-05-15T00:00:05.077Z,123.20
2018-05-15T00:01:05.091Z,120.80
2018-05-15T00:02:05.113Z,120.40
2018-05-15T00:03:05.130Z,119.20
2018-05-15T00:04:05.148Z,115.80
2018-05-15T00:05:05.170Z,119.50
2018-05-15T00:06:05.191Z,119.00
2018-05-15T00:07:05.212Z,119.10
2018-05-15T00:08:05.230Z,118.60
2018-05-15T00:09:05.254Z,120.00
2018-05-15T00:10:05.272Z,121.70
2018-05-15T00:11:05.289Z,121.70
2018-05-15T00:12:05.311Z,118.50
2018-05-15T00:13:05.329Z,118.90
2018-05-15T00:14:05.348Z,121.90
2018-05-15T00:15:05.367Z,117.40
2018-05-15T00:16:05.416Z,118.10
2018-05-15T00:17:05.411Z,118.70
2018-05-15T00:18:05.428Z,113.50
2018-05-15T00:19:05.448Z,113.80
2018-05-15T00:20:05.469Z,117.50
2018-05-15T00:21:05.487Z,118.00
2018-05-15T00:22:05.508Z,114.80
2018-05-15T00:23:05.526Z,118.50
2018-05-15T00:24:05.553Z,113.40
2018-05-15T00:25:05.566Z,113.60
2018-05-15T00:26:05.587Z,118.10
2018-05-15T00:27:05.600Z,115.70
2018-05-15T00:28:05.656Z,114.70
2018-05-15T00:29:05.649Z,113.90
2018-05-15T00:30:05.666Z,113.90
2018-05-15T00:31:05.690Z,109.70
2018-05-15T00:32:05.727Z,113.10
2018-05-15T00:33:05.721Z,115.50
2018-05-15T00:34:05.748Z,110.60
2018-05-15T00:35:05.769Z,114.60
2018-05-15T00:36:05.784Z,112.90
2018-05-15T00:37:05.804Z,112.50
2018-05-15T00:38:05.824Z,111.10
2018-05-15T00:39:05.848Z,109.40
2018-05-15T00:40:05.867Z,112.40
2018-05-15T00:41:05.883Z,113.10
2018-05-15T00:42:05.904Z,112.00
2018-05-15T00:43:05.921Z,112.90
2018-05-15T00:44:05.949Z,109.60
2018-05-15T00:45:05.962Z,110.40
2018-05-15T00:46:05.983Z,109.60
2018-05-15T00:47:06.001Z,108.80
2018-05-15T00:48:06.025Z,111.20
2018-05-15T00:49:06.043Z,111.10
2018-05-15T00:50:06.062Z,113.00
2018-05-15T00:51:06.080Z,109.10
2018-05-15T00:52:06.100Z,111.00
2018-05-15T00:53:06.121Z,104.40
2018-05-15T00:54:06.140Z,107.50
2018-05-15T00:55:06.158Z,106.20
2018-05-15T00:56:06.182Z,106.80
2018-05-15T00:57:06.199Z,108.60
2018-05-15T00:58:06.219Z,106.30
2018-05-15T00:59:06.239Z,104.30
2018-05-15T01:00:06.259Z,105.80
2018-05-15T01:01:06.280Z,107.50
2018-05-15T01:02:06.301Z,104.90
2018-05-15T01:03:06.317Z,101.90
2018-05-15T01:04:06.341Z,107.60
2018-05-15T01:05:06.358Z,106.70
2018-05-15T01:06:06.378Z,102.70
2018-05-15T01:07:06.397Z,102.70
2018-05-15T01:08:06.416Z,107.10
2018-05-15T01:09:06.439Z,105.20
2018-05-15T01:10:06.455Z,100.80
2018-05-15T01:11:06.476Z,106.10
2018-05-15T01:12:06.496Z,106.20
2018-05-15T01:13:06.518Z,100.70
2018-05-15T01:14:06.536Z,103.30
2018-05-15T01:15:06.556Z,99.70
2018-05-15T01:16:06.573Z,103.70
2018-05-15T01:17:06.597Z,104.30
2018-05-15T01:18:06.615Z,103.30
2018-05-15T01:19:06.633Z,100.80
2018-05-15T01:20:06.655Z,96.90
2018-05-15T01:21:06.673Z,103.40
2018-05-15T01:22:06.695Z,100.60
2018-05-15T01:23:06.713Z,98.70
2018-05-15T01:24:06.734Z,102.00
2018-05-15T01:25:06.753Z,99.80
2018-05-15T01:26:06.773Z,103.30
2018-05-15T01:27:06.792Z,99.40
2018-05-15T01:28:06.813Z,101.10
2018-05-15T01:29:06.832Z,105.40
2018-05-15T01:30:06.852Z,98.70
2018-05-15T01:31:06.872Z,99.00
2018-05-15T01:32:06.896Z,99.60
2018-05-15T01:33:06.915Z,96.80
2018-05-15T01:34:06.933Z,97.70
2018-05-15T01:35:06.951Z,99.20
2018-05-15T01:36:06.972Z,97.40
2018-05-15T01:37:06.994Z,95.00
2018-05-15T01:38:07.009Z,97.00
2018-05-15T01:39:07.030Z,94.10
2018-05-15T01:40:07.051Z,97.20
2018-05-15T01:41:07.069Z,98.40
2018-05-15T01:42:07.148Z,95.10
2018-05-15T01:43:07.108Z,95.90
2018-05-15T01:44:07.128Z,96.00
2018-05-15T01:45:07.151Z,95.50
2018-05-15T01:46:07.168Z,93.10
2018-05-15T01:47:07.188Z,100.70
2018-05-15T01:48:07.207Z,93.30
2018-05-15T01:49:07.230Z,95.50
2018-05-15T01:50:07.248Z,96.70
2018-05-15T01:51:07.267Z,95.20
2018-05-15T01:52:07.289Z,94.60
2018-05-15T01:53:07.307Z,93.20
2018-05-15T01:54:07.327Z,94.60
2018-05-15T01:55:07.344Z,94.10
2018-05-15T01:56:07.363Z,90.70
2018-05-15T01:57:07.385Z,93.30
2018-05-15T01:58:07.413Z,94.10
2018-05-15T01:59:07.424Z,89.60
2018-05-15T02:00:07.445Z,94.00
2018-05-15T02:01:07.464Z,91.20
2018-05-15T02:02:07.483Z,93.00
2018-05-15T02:03:07.503Z,90.50
2018-05-15T02:04:07.523Z,87.00
2018-05-15T02:05:07.547Z,91.30
2018-05-15T02:06:07.563Z,90.80
2018-05-15T02:07:07.582Z,89.80
2018-05-15T02:08:07.602Z,91.10
2018-05-15T02:09:07.623Z,91.30
2018-05-15T02:10:07.645Z,91.30
2018-05-15T02:11:07.666Z,89.90
2018-05-15T02:12:07.679Z,89.90
2018-05-15T02:13:07.701Z,89.10
2018-05-15T02:14:07.720Z,89.00
2018-05-15T02:15:07.739Z,88.20
2018-05-15T02:16:07.823Z,89.00
2018-05-15T02:17:07.781Z,87.00
2018-05-15T02:18:07.801Z,93.10
2018-05-15T02:19:07.818Z,90.30
2018-05-15T02:20:07.836Z,90.00
2018-05-15T02:21:07.860Z,90.80
2018-05-15T02:22:07.877Z,91.20
2018-05-15T02:23:07.897Z,86.10
2018-05-15T02:24:07.919Z,88.30
2018-05-15T02:25:07.937Z,87.50
2018-05-15T02:26:07.958Z,87.60
2018-05-15T02:27:07.981Z,86.20
2018-05-15T02:28:08.002Z,88.30
2018-05-15T02:29:08.017Z,88.40
2018-05-15T02:30:08.039Z,86.40
2018-05-15T02:31:08.054Z,85.00
2018-05-15T02:32:08.075Z,83.20
2018-05-15T02:33:08.095Z,81.70
2018-05-15T02:34:08.117Z,87.50
2018-05-15T02:35:08.139Z,84.20
2018-05-15T02:36:08.155Z,86.50
2018-05-15T02:37:08.206Z,83.90
2018-05-15T02:38:08.194Z,82.40
2018-05-15T02:39:08.218Z,84.50
2018-05-15T02:40:08.232Z,87.40
2018-05-15T02:41:08.257Z,83.80
2018-05-15T02:42:08.273Z,84.80
2018-05-15T02:43:08.296Z,87.20
2018-05-15T02:44:08.309Z,86.10
2018-05-15T02:45:08.332Z,85.20
2018-05-15T02:46:08.352Z,85.50
2018-05-15T02:47:08.373Z,79.60
2018-05-15T02:48:08.391Z,84.70
2018-05-15T02:49:08.411Z,84.00
2018-05-15T02:50:08.431Z,82.60
2018-05-15T02:51:08.456Z,84.40
2018-05-15T02:52:08.476Z,85.00
2018-05-15T02:53:08.493Z,80.50
2018-05-15T02:54:08.512Z,82.90
2018-05-15T02:56:08.550Z,79.40
2018-05-15T02:57:08.567Z,81.30
2018-05-15T02:58:08.594Z,81.90
2018-05-15T02:59:08.633Z,83.90
2018-05-15T03:00:08.642Z,80.90
2018-05-15T03:01:08.653Z,79.80
2018-05-15T03:02:08.668Z,78.30
2018-05-15T03:03:08.687Z,80.90
2018-05-15T03:04:08.698Z,78.10
2018-05-15T03:05:08.725Z,80.20
2018-05-15T03:06:08.748Z,77.60
2018-05-15T03:07:08.764Z,77.80
2018-05-15T03:08:08.785Z,80.70
2018-05-15T03:09:08.807Z,82.20
2018-05-15T03:10:08.831Z,77.60
2018-05-15T03:11:08.844Z,77.50
2018-05-15T03:12:08.864Z,80.10
2018-05-15T03:13:08.883Z,78.30
2018-05-15T03:14:08.906Z,75.80
2018-05-15T03:15:08.921Z,76.70
2018-05-15T03:16:08.939Z,77.40
2018-05-15T03:17:08.962Z,75.90
2018-05-15T03:18:08.983Z,73.50
2018-05-15T03:19:09.003Z,78.40
2018-05-15T03:20:09.023Z,75.00
2018-05-15T03:21:09.041Z,75.50
2018-05-15T03:22:09.067Z,78.00
2018-05-15T03:23:09.085Z,77.40
2018-05-15T03:24:09.101Z,78.00
2018-05-15T03:25:09.124Z,77.30
2018-05-15T03:26:09.140Z,74.70
2018-05-15T03:27:09.160Z,74.20
2018-05-15T03:28:09.184Z,73.40
2018-05-15T03:29:09.199Z,72.90
2018-05-15T03:30:09.219Z,73.60
2018-05-15T03:31:09.244Z,72.60
2018-05-15T03:32:09.257Z,72.50
2018-05-15T03:33:09.278Z,71.70
2018-05-15T03:34:09.300Z,72.50
2018-05-15T03:35:09.317Z,74.00
2018-05-15T03:36:09.336Z,74.90
2018-05-15T03:37:09.356Z,71.90
2018-05-15T03:38:09.376Z,70.00
2018-05-15T03:39:09.399Z,73.70
2018-05-15T03:40:09.414Z,72.90
2018-05-15T03:41:09.435Z,71.10
2018-05-15T03:42:09.457Z,72.20
2018-05-15T03:43:09.476Z,72.10
2018-05-15T03:44:09.500Z,71.20
2018-05-15T03:45:09.515Z,72.20
2018-05-15T03:46:09.533Z,72.10
2018-05-15T03:47:09.557Z,70.30
2018-05-15T03:48:09.572Z,71.30
2018-05-15T03:49:09.593Z,71.60
2018-05-15T03:50:09.615Z,68.30
2018-05-15T03:51:09.632Z,72.20
2018-05-15T03:52:09.654Z,69.60
2018-05-15T03:53:09.672Z,69.80
2018-05-15T03:54:09.690Z,71.60
2018-05-15T03:55:09.712Z,69.10
2018-05-15T03:56:09.731Z,70.00
2018-05-15T03:57:09.751Z,69.70
2018-05-15T03:58:09.770Z,72.40
2018-05-15T03:59:09.792Z,68.00
2018-05-15T04:00:09.812Z,68.40
2018-05-15T04:01:09.835Z,69.50
2018-05-15T04:02:09.849Z,70.70
2018-05-15T04:03:09.870Z,70.20
2018-05-15T04:04:09.891Z,69.00
2018-05-15T04:05:09.907Z,65.80
2018-05-15T04:06:09.928Z,67.10
2018-05-15T04:07:09.949Z,67.40
2018-05-15T04:08:09.966Z,67.70
2018-05-15T04:09:09.987Z,68.50
2018-05-15T04:10:10.007Z,66.60
2018-05-15T04:11:10.098Z,66.90
2018-05-15T04:12:10.046Z,64.40
2018-05-15T04:13:10.059Z,67.60
2018-05-15T04:14:10.086Z,65.10
2018-05-15T04:15:10.112Z,66.50
2018-05-15T04:16:10.209Z,67.10
2018-05-15T04:17:10.145Z,65.80
2018-05-15T04:18:10.166Z,66.50
2018-05-15T04:19:10.184Z,65.70
2018-05-15T04:20:10.204Z,64.40
2018-05-15T04:21:10.225Z,66.90
2018-05-15T04:22:10.244Z,64.20
2018-05-15T04:23:10.265Z,62.40
2018-05-15T04:24:10.286Z,67.10
2018-05-15T04:25:10.301Z,65.00
2018-05-15T04:26:10.325Z,67.10
2018-05-15T04:27:10.343Z,64.00
2018-05-15T04:28:10.391Z,65.00
2018-05-15T04:29:10.381Z,63.60
2018-05-15T04:30:10.404Z,65.50
2018-05-15T04:31:10.419Z,63.60
2018-05-15T04:32:10.443Z,65.70
2018-05-15T04:33:10.459Z,64.30
2018-05-15T04:34:10.484Z,64.40
2018-05-15T04:35:10.554Z,63.20
2018-05-15T04:36:10.516Z,62.50
2018-05-15T04:37:10.538Z,60.30
2018-05-15T04:38:10.558Z,64.50
2018-05-15T04:39:10.577Z,64.40
2018-05-15T04:40:10.599Z,61.50
2018-05-15T04:41:10.618Z,58.60
2018-05-15T04:42:10.641Z,61.60
2018-05-15T04:43:10.658Z,59.60
2018-05-15T04:44:10.674Z,60.40
2018-05-15T04:45:10.696Z,61.00
2018-05-15T04:46:10.717Z,62.50
2018-05-15T04:47:10.734Z,60.10
2018-05-15T04:48:10.758Z,61.20
2018-05-15T04:49:10.775Z,60.70
2018-05-15T04:50:10.793Z,61.40
2018-05-15T04:51:10.817Z,58.60
2018-05-15T04:52:10.833Z,59.20
2018-05-15T04:53:10.853Z,61.60
2018-05-15T04:54:10.879Z,59.60
2018-05-15T04:55:10.896Z,59.60
2018-05-15T04:56:10.911Z,58.90
2018-05-15T04:57:10.933Z,57.60
2018-05-15T04:58:10.951Z,58.10
2018-05-15T04:59:10.977Z,60.40
2018-05-15T05:00:10.991Z,57.30
2018-05-15T05:01:11.013Z,58.50
2018-05-15T05:02:11.031Z,58.00
2018-05-15T05:03:11.050Z,56.60
2018-05-15T05:04:11.073Z,58.40
2018-05-15T05:05:11.091Z,59.10
2018-05-15T05:06:11.110Z,57.70
2018-05-15T05:07:11.131Z,58.50
2018-05-15T05:08:11.148Z,58.40
2018-05-15T05:09:11.168Z,57.40
2018-05-15T05:10:11.195Z,57.50
2018-05-15T05:11:11.212Z,55.90
2018-05-15T05:12:11.230Z,57.30
2018-05-15T05:13:11.247Z,60.20
2018-05-15T05:14:11.266Z,59.50
2018-05-15T05:15:11.287Z,55.00
2018-05-15T05:16:11.310Z,55.70
2018-05-15T05:17:11.326Z,57.80
2018-05-15T05:18:11.354Z,59.00
2018-05-15T05:19:11.366Z,56.00
2018-05-15T05:20:11.388Z,57.60
2018-05-15T05:21:11.406Z,56.10
2018-05-15T05:22:11.424Z,57.30
2018-05-15T05:23:11.454Z,58.70
2018-05-15T05:24:11.464Z,56.00
2018-05-15T05:25:11.485Z,54.90
2018-05-15T05:26:11.503Z,57.90
2018-05-15T05:27:11.536Z,57.70
2018-05-15T05:28:11.547Z,54.30
2018-05-15T05:29:11.563Z,55.30
2018-05-15T05:30:11.581Z,55.90
2018-05-15T05:31:11.605Z,57.70
2018-05-15T05:32:11.619Z,53.10
2018-05-15T05:33:11.660Z,56.30
2018-05-15T05:34:11.662Z,55.10
2018-05-15T05:35:11.680Z,53.50
2018-05-15T05:36:11.701Z,54.30
2018-05-15T05:37:11.720Z,55.40
2018-05-15T05:38:11.739Z,53.10
2018-05-15T05:39:11.766Z,54.40
2018-05-15T05:40:11.861Z,52.60
2018-05-15T05:41:11.798Z,52.00
2018-05-15T05:42:11.818Z,52.80
2018-05-15T05:43:11.837Z,52.40
2018-05-15T05:44:11.858Z,51.20
2018-05-15T05:45:11.877Z,53.30
2018-05-15T05:46:11.897Z,51.10
2018-05-15T05:47:11.919Z,53.10
2018-05-15T05:48:11.934Z,52.80
2018-05-15T05:49:11.957Z,52.00
2018-05-15T05:50:11.975Z,52.10
2018-05-15T05:51:11.993Z,51.50
2018-05-15T05:52:12.020Z,51.10
2018-05-15T05:53:12.035Z,51.30
2018-05-15T05:54:12.052Z,50.80
2018-05-15T05:55:12.074Z,49.90
2018-05-15T05:56:12.093Z,49.80
2018-05-15T05:57:12.113Z,52.90
2018-05-15T05:58:12.132Z,49.10
2018-05-15T05:59:12.152Z,49.90
2018-05-15T06:00:12.172Z,51.20
2018-05-15T06:01:12.192Z,47.80
2018-05-15T06:02:12.211Z,49.40
2018-05-15T06:03:12.232Z,48.90
2018-05-15T06:04:12.249Z,49.80
2018-05-15T06:05:12.272Z,49.50
2018-05-15T06:06:12.290Z,50.90
2018-05-15T06:07:12.311Z,47.60
2018-05-15T06:08:12.335Z,46.70
2018-05-15T06:09:12.350Z,46.30
2018-05-15T06:10:12.375Z,46.80
2018-05-15T06:11:12.394Z,48.30
2018-05-15T06:12:12.407Z,47.10
2018-05-15T06:13:12.428Z,47.50
2018-05-15T06:14:12.467Z,46.00
2018-05-15T06:15:12.467Z,47.90
2018-05-15T06:16:12.495Z,47.10
2018-05-15T06:17:12.507Z,46.60
2018-05-15T06:18:12.526Z,47.80
2018-05-15T06:19:12.551Z,47.00
2018-05-15T06:20:12.565Z,48.60
2018-05-15T06:21:12.586Z,45.80
2018-05-15T06:22:12.607Z,46.40
2018-05-15T06:23:12.625Z,46.00
2018-05-15T06:24:12.647Z,45.80
2018-05-15T06:25:12.663Z,45.30
2018-05-15T06:26:12.686Z,46.30
2018-05-15T06:27:12.709Z,46.80
2018-05-15T06:28:12.721Z,45.90
2018-05-15T06:29:12.744Z,44.90
2018-05-15T06:30:12.764Z,45.20
2018-05-15T06:31:12.784Z,45.40
2018-05-15T06:32:12.806Z,45.70
2018-05-15T06:33:12.821Z,46.30
2018-05-15T06:34:12.841Z,44.90
2018-05-15T06:35:12.862Z,44.40
2018-05-15T06:36:12.883Z,45.40
2018-05-15T06:37:12.906Z,45.90
2018-05-15T06:38:12.923Z,44.80
2018-05-15T06:39:12.939Z,45.50
2018-05-15T06:40:12.963Z,44.80
2018-05-15T06:41:12.978Z,43.70
2018-05-15T06:42:13.000Z,44.50
2018-05-15T06:43:13.029Z,43.90
2018-05-15T06:44:13.038Z,46.20
2018-05-15T06:45:13.060Z,43.70
2018-05-15T06:46:13.079Z,43.70
2018-05-15T06:47:13.097Z,43.60
2018-05-15T06:48:13.121Z,43.10
2018-05-15T06:49:13.136Z,44.00
2018-05-15T06:50:13.164Z,42.60
2018-05-15T06:51:13.178Z,43.80
2018-05-15T06:52:13.196Z,43.80
2018-05-15T06:53:13.219Z,43.50
2018-05-15T06:54:13.237Z,43.70
2018-05-15T06:55:13.256Z,42.90
2018-05-15T06:56:13.279Z,43.50
2018-05-15T06:57:13.294Z,41.70
2018-05-15T06:58:13.316Z,42.60
2018-05-15T06:59:13.337Z,41.20
2018-05-15T07:00:13.353Z,41.50
2018-05-15T07:01:13.374Z,43.30
2018-05-15T07:02:13.392Z,42.40
2018-05-15T07:03:13.412Z,42.90
2018-05-15T07:04:13.448Z,42.00
2018-05-15T07:05:13.452Z,42.90
2018-05-15T07:06:13.472Z,42.20
2018-05-15T07:07:13.492Z,42.90
2018-05-15T07:08:13.510Z,43.00
2018-05-15T07:09:13.531Z,40.60
2018-05-15T07:10:13.550Z,41.10
2018-05-15T07:11:13.569Z,42.20
2018-05-15T07:12:13.593Z,41.30
2018-05-15T07:13:13.607Z,42.70
2018-05-15T07:14:13.629Z,41.00
2018-05-15T07:15:13.651Z,41.60
2018-05-15T07:16:13.670Z,41.30
2018-05-15T07:17:13.689Z,42.30
2018-05-15T07:18:13.712Z,41.20
2018-05-15T07:19:13.768Z,41.40
2018-05-15T07:20:13.750Z,39.70
2018-05-15T07:21:13.768Z,39.30
2018-05-15T07:22:13.791Z,41.20
2018-05-15T07:23:13.808Z,41.80
2018-05-15T07:24:13.824Z,41.20
2018-05-15T07:25:13.846Z,40.50
2018-05-15T07:26:13.866Z,41.10
2018-05-15T07:27:13.894Z,40.30
2018-05-15T07:28:13.907Z,39.00
2018-05-15T07:29:13.925Z,42.60
2018-05-15T07:30:13.950Z,39.10
2018-05-15T07:31:13.965Z,39.30
2018-05-15T07:32:13.983Z,40.40
2018-05-15T07:33:14.092Z,38.80
2018-05-15T07:34:14.024Z,39.80
2018-05-15T07:35:14.043Z,40.40
2018-05-15T07:36:14.065Z,39.00
2018-05-15T07:37:14.083Z,39.80
2018-05-15T07:38:14.104Z,39.50
2018-05-15T07:39:14.124Z,39.80
2018-05-15T07:40:14.176Z,39.50
2018-05-15T07:41:14.161Z,39.70
2018-05-15T07:42:14.185Z,39.00
2018-05-15T07:43:14.200Z,40.30
2018-05-15T07:44:14.224Z,38.70
2018-05-15T07:45:14.242Z,38.40
2018-05-15T07:46:14.261Z,38.50
2018-05-15T07:47:14.280Z,39.00
2018-05-15T07:48:14.304Z,38.60
2018-05-15T07:49:14.320Z,37.80
2018-05-15T07:50:14.340Z,38.30
2018-05-15T07:51:14.360Z,39.30
2018-05-15T07:52:14.382Z,39.10
2018-05-15T07:53:14.396Z,37.90
2018-05-15T07:54:14.418Z,38.30
2018-05-15T07:55:14.440Z,38.20
2018-05-15T07:56:14.457Z,39.20
2018-05-15T07:57:14.477Z,38.10
2018-05-15T07:58:14.496Z,37.90
2018-05-15T07:59:14.516Z,39.00
2018-05-15T08:00:14.541Z,37.70
2018-05-15T08:01:14.556Z,37.60
2018-05-15T08:02:14.575Z,39.40
2018-05-15T08:03:14.594Z,37.90
2018-05-15T08:04:14.614Z,37.30
2018-05-15T08:05:14.635Z,37.70
2018-05-15T08:06:14.654Z,37.40
2018-05-15T08:07:14.676Z,37.40
2018-05-15T08:08:14.696Z,36.50
2018-05-15T08:09:14.712Z,37.20
2018-05-15T08:10:14.734Z,37.30
2018-05-15T08:11:14.753Z,37.10
2018-05-15T08:12:14.771Z,36.90
2018-05-15T08:13:14.791Z,37.40
2018-05-15T08:14:14.815Z,37.30
2018-05-15T08:15:14.825Z,36.60
2018-05-15T08:16:14.861Z,36.80
2018-05-15T08:17:14.872Z,36.50
2018-05-15T08:18:14.890Z,37.00
2018-05-15T08:19:14.914Z,36.50
2018-05-15T08:20:14.927Z,35.80
2018-05-15T08:21:14.951Z,36.50
2018-05-15T08:22:15.047Z,36.40
2018-05-15T08:23:14.989Z,36.70
2018-05-15T08:24:15.010Z,35.60
2018-05-15T08:25:15.030Z,35.60
2018-05-15T08:26:15.049Z,36.40
2018-05-15T08:27:15.068Z,36.40
2018-05-15T08:28:15.090Z,36.10
2018-05-15T08:29:15.107Z,36.30
2018-05-15T08:30:15.128Z,35.70
2018-05-15T08:31:15.145Z,35.60
2018-05-15T08:32:15.169Z,36.50
2018-05-15T08:33:15.188Z,36.20
2018-05-15T08:34:15.206Z,36.10
2018-05-15T08:35:15.225Z,35.90
2018-05-15T08:36:15.243Z,34.50
2018-05-15T08:37:15.352Z,35.80
2018-05-15T08:38:15.284Z,36.10
2018-05-15T08:39:15.308Z,36.10
2018-05-15T08:40:15.330Z,35.40
2018-05-15T08:41:15.343Z,36.00
2018-05-15T08:42:15.364Z,35.00
2018-05-15T08:43:15.387Z,34.90
2018-05-15T08:44:15.401Z,35.20
2018-05-15T08:45:15.489Z,35.70
2018-05-15T08:46:15.445Z,34.90
2018-05-15T08:47:15.461Z,35.70
2018-05-15T08:48:15.482Z,34.50
2018-05-15T08:49:15.501Z,36.20
2018-05-15T08:50:15.521Z,35.90
2018-05-15T08:51:15.541Z,35.80
2018-05-15T08:52:15.558Z,34.80
2018-05-15T08:53:15.580Z,34.90
2018-05-15T08:54:15.600Z,35.30
2018-05-15T08:55:15.622Z,34.40
2018-05-15T08:56:15.639Z,34.30
2018-05-15T08:57:15.684Z,35.00
2018-05-15T08:58:15.679Z,34.80
2018-05-15T08:59:15.700Z,35.90
2018-05-15T09:00:15.882Z,34.60
2018-05-15T09:01:15.821Z,35.20
2018-05-15T09:02:15.759Z,34.30
2018-05-15T09:03:15.780Z,34.70
2018-05-15T09:04:15.799Z,34.30
2018-05-15T09:05:15.816Z,34.10
2018-05-15T09:06:15.838Z,33.60
2018-05-15T09:07:15.854Z,34.50
2018-05-15T09:08:15.873Z,34.10
2018-05-15T09:09:15.895Z,35.90
2018-05-15T09:10:15.915Z,35.00
2018-05-15T09:11:15.936Z,33.80
2018-05-15T09:12:15.956Z,34.40
2018-05-15T09:13:16.007Z,34.00
2018-05-15T09:14:15.996Z,34.70
2018-05-15T09:15:16.015Z,33.80
2018-05-15T09:16:16.031Z,33.40
2018-05-15T09:17:16.054Z,33.90
2018-05-15T09:18:16.165Z,33.80
2018-05-15T09:19:16.150Z,33.00
2018-05-15T09:20:16.113Z,32.30
2018-05-15T09:21:16.136Z,34.20
2018-05-15T09:22:16.153Z,33.80
2018-05-15T09:23:16.176Z,31.90
2018-05-15T09:24:16.193Z,32.40
2018-05-15T09:25:16.212Z,32.80
2018-05-15T09:26:16.232Z,32.30
2018-05-15T09:27:16.251Z,31.80
2018-05-15T09:28:16.269Z,31.90
2018-05-15T09:29:16.303Z,30.40
2018-05-15T09:30:16.309Z,31.10
2018-05-15T09:31:16.328Z,31.30
2018-05-15T09:32:16.349Z,29.80
2018-05-15T09:33:16.369Z,30.00
2018-05-15T09:34:16.389Z,29.60
2018-05-15T09:35:16.408Z,29.50
2018-05-15T09:36:16.424Z,29.30
2018-05-15T09:37:16.448Z,29.70
2018-05-15T09:38:16.467Z,29.00
2018-05-15T09:39:16.491Z,29.70
2018-05-15T09:40:16.507Z,28.90
2018-05-15T09:41:16.527Z,28.50
2018-05-15T09:42:16.546Z,28.20
2018-05-15T09:43:16.566Z,28.60
2018-05-15T09:44:16.584Z,29.80
2018-05-15T09:45:16.606Z,29.50
2018-05-15T09:46:16.627Z,31.70
2018-05-15T09:47:16.648Z,31.30
2018-05-15T09:48:16.662Z,32.40
2018-05-15T09:49:16.684Z,33.60
2018-05-15T09:50:16.704Z,34.40
2018-05-15T09:51:16.725Z,34.70
2018-05-15T09:52:16.858Z,35.70
2018-05-15T09:53:16.762Z,35.50
2018-05-15T09:54:16.783Z,37.00
2018-05-15T09:55:16.801Z,37.70
2018-05-15T09:56:16.818Z,36.70
2018-05-15T09:57:16.844Z,38.20
2018-05-15T09:58:16.860Z,37.80
2018-05-15T09:59:16.886Z,37.10
2018-05-15T10:00:16.899Z,37.70
2018-05-15T10:01:16.917Z,37.00
2018-05-15T10:02:16.938Z,37.50
2018-05-15T10:03:16.961Z,38.60
2018-05-15T10:04:16.978Z,38.10
2018-05-15T10:05:16.999Z,37.60
2018-05-15T10:06:17.020Z,37.00
2018-05-15T10:07:17.036Z,38.40
2018-05-15T10:08:17.061Z,37.20
2018-05-15T10:09:17.076Z,38.10
2018-05-15T10:10:17.098Z,38.60
2018-05-15T10:11:17.117Z,37.80
2018-05-15T10:12:17.133Z,38.10
2018-05-15T10:13:17.157Z,38.60
2018-05-15T10:14:17.228Z,38.50
2018-05-15T10:15:17.197Z,38.60
2018-05-15T10:16:17.215Z,37.60
2018-05-15T10:17:17.233Z,37.80
2018-05-15T10:18:17.254Z,38.50
2018-05-15T10:19:17.274Z,37.80
2018-05-15T10:20:17.290Z,37.50
2018-05-15T10:21:17.313Z,37.60
2018-05-15T10:22:17.333Z,37.80
2018-05-15T10:23:17.352Z,38.40
2018-05-15T10:24:17.380Z,38.70
2018-05-15T10:25:17.390Z,38.90
2018-05-15T10:26:17.458Z,38.10
2018-05-15T10:27:17.429Z,38.90
2018-05-15T10:28:17.450Z,39.20
2018-05-15T10:29:17.470Z,38.20
2018-05-15T10:30:17.490Z,38.60
2018-05-15T10:31:17.510Z,37.90
2018-05-15T10:32:17.574Z,37.40
2018-05-15T10:33:17.548Z,37.50
2018-05-15T10:34:17.565Z,36.90
2018-05-15T10:35:17.619Z,37.10
2018-05-15T10:36:17.606Z,37.90
2018-05-15T10:37:17.628Z,36.40
2018-05-15T10:38:17.648Z,37.20
2018-05-15T10:39:17.670Z,36.30
2018-05-15T10:40:17.688Z,36.50
2018-05-15T10:41:17.705Z,37.60
2018-05-15T10:42:17.742Z,37.40
2018-05-15T10:43:17.744Z,36.30
2018-05-15T10:44:17.764Z,37.40
2018-05-15T10:45:17.786Z,36.10
2018-05-15T10:46:17.806Z,36.30
2018-05-15T10:47:17.829Z,36.20
2018-05-15T10:48:17.851Z,36.50
2018-05-15T10:49:17.863Z,35.20
2018-05-15T10:50:17.887Z,36.00
2018-05-15T10:51:17.904Z,36.00
2018-05-15T10:52:17.920Z,35.20
2018-05-15T10:53:17.941Z,35.50
2018-05-15T10:54:17.960Z,36.10
2018-05-15T10:55:17.980Z,34.90
2018-05-15T10:56:18.004Z,35.00
2018-05-15T10:57:18.019Z,35.30
2018-05-15T10:58:18.040Z,34.90
2018-05-15T10:59:18.060Z,35.40
2018-05-15T11:00:18.078Z,35.20
2018-05-15T11:01:18.099Z,35.30
2018-05-15T11:02:18.118Z,34.30
2018-05-15T11:03:18.138Z,34.90
2018-05-15T11:04:18.160Z,35.40
2018-05-15T11:05:18.177Z,34.90
2018-05-15T11:06:18.235Z,35.10
2018-05-15T11:07:18.218Z,34.70
2018-05-15T11:08:18.235Z,34.30
2018-05-15T11:09:18.256Z,34.10
2018-05-15T11:10:18.275Z,34.80
2018-05-15T11:11:18.297Z,33.60
2018-05-15T11:12:18.318Z,33.70
2018-05-15T11:13:18.337Z,33.90
2018-05-15T11:14:18.361Z,32.90
2018-05-15T11:15:18.374Z,33.20
2018-05-15T11:16:18.509Z,33.80
2018-05-15T11:17:18.412Z,33.30
2018-05-15T11:18:18.432Z,33.00
2018-05-15T11:19:18.450Z,34.50
2018-05-15T11:20:18.474Z,33.50
2018-05-15T11:21:18.493Z,33.50
2018-05-15T11:22:18.514Z,32.10
2018-05-15T11:23:18.536Z,32.80
2018-05-15T11:24:18.549Z,32.40
2018-05-15T11:25:18.571Z,31.90
2018-05-15T11:26:18.583Z,31.70
2018-05-15T11:27:18.608Z,32.10
2018-05-15T11:28:18.632Z,32.60
2018-05-15T11:29:18.648Z,31.30
2018-05-15T11:30:18.673Z,31.40
2018-05-15T11:31:18.691Z,31.10
2018-05-15T11:32:18.706Z,31.60
2018-05-15T11:33:18.725Z,31.50
2018-05-15T11:34:18.753Z,31.40
2018-05-15T11:35:18.770Z,31.00
2018-05-15T11:36:18.791Z,30.70
2018-05-15T11:37:18.806Z,31.40
2018-05-15T11:38:18.825Z,31.40
2018-05-15T11:39:18.857Z,31.20
2018-05-15T11:40:18.863Z,30.70
2018-05-15T11:41:18.884Z,30.70
2018-05-15T11:42:18.903Z,31.10
2018-05-15T11:43:18.919Z,31.20
2018-05-15T11:44:18.943Z,31.00
2018-05-15T11:45:18.963Z,31.20
2018-05-15T11:46:18.983Z,31.30
2018-05-15T11:47:19.108Z,31.70
2018-05-15T11:48:19.532Z,30.50
2018-05-15T11:49:19.722Z,31.20
2018-05-15T11:50:19.783Z,30.70
2018-05-15T11:51:19.579Z,30.20
2018-05-15T11:52:20.073Z,30.50
2018-05-15T11:53:19.326Z,29.10
2018-05-15T11:54:19.140Z,30.50
2018-05-15T11:55:19.162Z,30.10
2018-05-15T11:56:19.181Z,31.10
2018-05-15T11:57:19.198Z,30.00
2018-05-15T11:58:19.233Z,31.30
2018-05-15T11:59:19.238Z,31.40
2018-05-15T12:00:19.258Z,29.70
2018-05-15T12:01:19.278Z,29.40
2018-05-15T12:02:19.331Z,30.10
2018-05-15T12:03:19.320Z,29.70
2018-05-15T12:04:19.338Z,29.40
2018-05-15T12:05:19.358Z,30.80
2018-05-15T12:06:19.374Z,29.70
2018-05-15T12:07:19.396Z,30.70
2018-05-15T12:08:19.517Z,28.70
2018-05-15T12:09:19.434Z,29.80
2018-05-15T12:10:19.455Z,29.60
2018-05-15T12:11:19.480Z,29.40
2018-05-15T12:12:19.495Z,29.60
2018-05-15T12:13:19.516Z,29.40
2018-05-15T12:14:19.533Z,29.50
2018-05-15T12:15:19.554Z,29.90
2018-05-15T12:16:19.573Z,28.80
2018-05-15T12:17:19.591Z,29.00
2018-05-15T12:18:19.612Z,28.60
2018-05-15T12:19:19.637Z,29.10
2018-05-15T12:20:19.651Z,28.60
2018-05-15T12:21:19.671Z,28.00
2018-05-15T12:22:19.693Z,28.10
2018-05-15T12:23:19.711Z,29.20
2018-05-15T12:24:19.726Z,27.90
2018-05-15T12:25:19.751Z,28.10
2018-05-15T12:26:19.770Z,28.40
2018-05-15T12:27:19.793Z,27.80
2018-05-15T12:28:19.808Z,29.50
2018-05-15T12:29:19.831Z,29.10
2018-05-15T12:30:19.848Z,27.10
2018-05-15T12:31:19.868Z,28.20
2018-05-15T12:32:19.887Z,27.60
2018-05-15T12:33:19.909Z,27.40
2018-05-15T12:34:19.943Z,27.70
2018-05-15T12:35:19.950Z,28.10
2018-05-15T12:36:19.968Z,28.00
2018-05-15T12:37:19.987Z,28.20
2018-05-15T12:38:20.007Z,28.20
2018-05-15T12:39:20.025Z,27.90
2018-05-15T12:40:20.045Z,27.60
2018-05-15T12:41:20.089Z,27.80
2018-05-15T12:42:20.086Z,27.20
2018-05-15T12:43:20.112Z,27.90
2018-05-15T12:44:20.128Z,26.90
2018-05-15T12:45:20.144Z,26.80
2018-05-15T12:46:20.166Z,27.00
2018-05-15T12:47:20.184Z,27.30
2018-05-15T12:48:20.203Z,26.80
2018-05-15T12:49:20.223Z,27.20
2018-05-15T12:50:20.244Z,27.30